createdAt,value
2023-01-31T00:00:23.158Z,1.5
2023-01-31T00:04:23.381Z,1.5
2023-01-31T00:06:26.605Z,1.5
2023-01-31T00:10:23.209Z,1.5
2023-01-31T00:12:23.197Z,1.5
2023-01-31T00:16:23.219Z,1.4
2023-01-31T00:18:23.156Z,1.4
2023-01-31T00:22:23.190Z,1.4
2023-01-31T00:24:23.035Z,1.4
2023-01-31T00:28:23.186Z,1.4
2023-01-31T00:30:23.202Z,1.4
2023-01-31T00:34:25.881Z,1.3
2023-01-31T00:36:25.918Z,1.4
2023-01-31T00:38:29.248Z,1.3
2023-01-31T00:40:23.195Z,1.4
2023-01-31T00:42:23.208Z,1.3
2023-01-31T00:46:23.181Z,1.4
2023-01-31T00:48:26.586Z,1.4
2023-01-31T00:52:25.277Z,1.4
2023-01-31T00:54:23.166Z,1.4
2023-01-31T00:58:26.374Z,1.3
2023-01-31T01:00:26.916Z,1.3
2023-01-31T01:02:29.086Z,1.3
2023-01-31T01:04:25.622Z,1.3
2023-01-31T01:06:23.192Z,1.3
2023-01-31T01:10:23.209Z,1.3
2023-01-31T01:12:23.181Z,1.4
2023-01-31T01:16:25.379Z,1.3
2023-01-31T01:18:23.055Z,1.3
2023-01-31T01:20:29.778Z,1.3
2023-01-31T01:22:23.093Z,1.3
2023-01-31T01:24:28.284Z,1.3
2023-01-31T01:28:23.197Z,1.3
2023-01-31T01:30:23.202Z,1.3
2023-01-31T01:34:23.202Z,1.3
2023-01-31T01:36:23.189Z,1.3
2023-01-31T01:40:23.211Z,1.3
2023-01-31T01:42:23.189Z,1.2
2023-01-31T01:46:24.872Z,1.3
2023-01-31T01:48:23.207Z,1.2
2023-01-31T01:52:27.326Z,1.2
2023-01-31T01:54:28.801Z,1.2
2023-01-31T01:58:29.052Z,1.1
2023-01-31T02:00:23.200Z,1.1
2023-01-31T02:02:30.068Z,1.1
2023-01-31T02:04:23.211Z,1.1
2023-01-31T02:06:28.024Z,1.2
2023-01-31T02:10:23.050Z,1.3
2023-01-31T02:12:23.063Z,1.2
2023-01-31T02:16:25.691Z,1.1
2023-01-31T02:18:26.707Z,1.2
2023-01-31T02:22:23.885Z,1.1
2023-01-31T02:24:23.621Z,1.1
2023-01-31T02:28:23.219Z,1.1
2023-01-31T02:30:25.328Z,1.1
2023-01-31T02:34:27.178Z,1
2023-01-31T02:36:23.315Z,1
2023-01-31T02:40:26.603Z,1
2023-01-31T02:42:23.056Z,1
2023-01-31T02:46:29.305Z,0.9
2023-01-31T02:48:23.103Z,0.9
2023-01-31T02:52:23.218Z,0.9
2023-01-31T02:54:29.799Z,0.9
2023-01-31T02:58:23.252Z,0.9
2023-01-31T03:00:28.585Z,0.9
2023-01-31T03:04:28.023Z,0.9
2023-01-31T03:06:26.369Z,0.8
2023-01-31T03:08:29.526Z,0.8
2023-01-31T03:10:23.151Z,0.8
2023-01-31T03:12:29.281Z,0.8
2023-01-31T03:16:25.925Z,0.8
2023-01-31T03:18:23.093Z,0.8
2023-01-31T03:20:29.639Z,0.8
2023-01-31T03:22:28.809Z,0.7
2023-01-31T03:24:29.312Z,0.8
2023-01-31T03:26:29.658Z,0.8
2023-01-31T03:28:25.753Z,0.8
2023-01-31T03:30:23.066Z,0.7
2023-01-31T03:34:23.226Z,0.7
2023-01-31T03:36:23.275Z,0.7
2023-01-31T03:40:23.222Z,0.8
2023-01-31T03:42:26.707Z,0.8
2023-01-31T03:46:23.081Z,0.7
2023-01-31T03:48:26.198Z,0.7
2023-01-31T03:52:23.152Z,0.7
2023-01-31T03:54:24.439Z,0.7
2023-01-31T03:56:29.628Z,0.7
2023-01-31T03:58:23.078Z,0.7
2023-01-31T04:00:27.001Z,0.7
2023-01-31T04:02:29.848Z,0.6
2023-01-31T04:04:25.704Z,0.7
2023-01-31T04:10:23.078Z,0.7
2023-01-31T04:12:25.713Z,0.7
2023-01-31T04:16:29.386Z,0.7
2023-01-31T04:18:23.071Z,0.7
2023-01-31T04:20:29.886Z,0.7
2023-01-31T04:22:28.547Z,0.7
2023-01-31T04:24:28.481Z,0.7
2023-01-31T04:26:29.842Z,0.7
2023-01-31T04:28:28.746Z,0.7
2023-01-31T04:30:26.772Z,0.8
2023-01-31T04:32:29.752Z,0.7
2023-01-31T04:34:23.096Z,0.7
2023-01-31T04:36:23.090Z,0.7
2023-01-31T04:38:29.872Z,0.7
2023-01-31T04:40:23.081Z,0.7
2023-01-31T04:42:23.092Z,0.7
2023-01-31T04:44:29.087Z,0.7
2023-01-31T04:46:25.310Z,0.7
2023-01-31T04:48:23.102Z,0.7
2023-01-31T04:52:23.304Z,0.7
2023-01-31T04:54:25.269Z,0.7
2023-01-31T04:58:23.087Z,0.7
2023-01-31T05:00:23.256Z,0.6
2023-01-31T05:02:29.650Z,0.6
2023-01-31T05:04:23.090Z,0.6
2023-01-31T05:06:26.684Z,0.6
2023-01-31T05:10:25.753Z,0.6
2023-01-31T05:16:23.325Z,0.5
2023-01-31T05:18:23.093Z,0.6
2023-01-31T05:20:29.799Z,0.6
2023-01-31T05:22:23.087Z,0.7
2023-01-31T05:24:23.093Z,0.6
2023-01-31T05:28:23.106Z,0.7
2023-01-31T05:32:29.111Z,0.7
2023-01-31T05:34:25.324Z,0.8
2023-01-31T05:36:23.101Z,0.7
2023-01-31T05:38:30.040Z,0.8
2023-01-31T05:40:30.007Z,0.8
2023-01-31T05:44:39.586Z,0.7
2023-01-31T05:46:32.274Z,0.7
2023-01-31T05:48:31.953Z,0.7
2023-01-31T05:52:32.428Z,0.7
2023-01-31T05:54:32.523Z,0.7
2023-01-31T05:58:33.202Z,0.8
2023-01-31T06:00:32.180Z,0.8
2023-01-31T06:04:32.111Z,0.8
2023-01-31T06:06:32.493Z,0.9
2023-01-31T06:10:32.010Z,0.8
2023-01-31T06:12:35.437Z,0.8
2023-01-31T06:16:32.378Z,0.8
2023-01-31T06:18:31.917Z,0.8
2023-01-31T06:20:38.635Z,0.8
2023-01-31T06:22:33.251Z,0.8
2023-01-31T06:24:31.926Z,0.8
2023-01-31T06:26:36.859Z,0.8
2023-01-31T06:28:33.963Z,0.7
2023-01-31T06:30:33.181Z,0.7
2023-01-31T06:34:32.975Z,0.8
2023-01-31T06:36:31.744Z,0.8
2023-01-31T06:40:32.809Z,0.8
2023-01-31T06:42:31.908Z,0.7
2023-01-31T06:46:32.979Z,0.8
2023-01-31T06:48:35.719Z,0.8
2023-01-31T06:52:31.915Z,0.8
2023-01-31T06:54:32.548Z,0.7
2023-01-31T06:56:38.409Z,0.8
2023-01-31T06:58:34.033Z,0.7
2023-01-31T07:00:35.400Z,0.8
2023-01-31T07:04:34.009Z,0.7
2023-01-31T07:06:32.481Z,0.7
2023-01-31T07:10:32.481Z,0.7
2023-01-31T07:12:32.362Z,0.7
2023-01-31T07:14:37.511Z,0.7
2023-01-31T07:16:36.639Z,0.7
2023-01-31T07:18:33.279Z,0.7
2023-01-31T07:22:37.744Z,0.8
2023-01-31T07:24:37.202Z,0.8
2023-01-31T07:28:33.312Z,0.8
2023-01-31T07:30:33.235Z,0.8
2023-01-31T07:34:34.287Z,0.9
2023-01-31T07:36:33.410Z,1
2023-01-31T07:38:37.979Z,1
2023-01-31T07:40:32.135Z,1
2023-01-31T07:42:34.118Z,1.1
2023-01-31T07:44:36.679Z,1.1
2023-01-31T07:46:32.277Z,1.1
2023-01-31T07:48:35.282Z,1.2
2023-01-31T07:52:32.060Z,1.2
2023-01-31T07:56:38.460Z,1.3
2023-01-31T07:58:35.353Z,1.3
2023-01-31T08:00:32.080Z,1.2
2023-01-31T08:02:38.336Z,1.2
2023-01-31T08:04:32.118Z,1.1
2023-01-31T08:06:33.269Z,1.1
2023-01-31T08:08:38.351Z,1.1
2023-01-31T08:10:32.056Z,1.2
2023-01-31T08:16:31.960Z,1.4
2023-01-31T08:18:31.949Z,1.4
2023-01-31T08:20:36.708Z,1.4
2023-01-31T08:22:33.022Z,1.4
2023-01-31T08:24:31.920Z,1.4
2023-01-31T08:26:38.514Z,1.5
2023-01-31T08:28:31.962Z,1.4
2023-01-31T08:30:31.994Z,1.5
2023-01-31T08:34:33.080Z,1.5
2023-01-31T08:36:32.173Z,1.5
2023-01-31T08:40:33.691Z,1.6
2023-01-31T08:42:34.129Z,1.6
2023-01-31T08:44:38.541Z,1.5
2023-01-31T08:48:32.481Z,1.5
2023-01-31T08:52:31.973Z,1.6
2023-01-31T08:54:32.502Z,1.7
2023-01-31T08:58:32.282Z,1.7
2023-01-31T09:00:37.198Z,1.7
2023-01-31T09:04:33.725Z,1.7
2023-01-31T09:06:34.106Z,1.7
2023-01-31T09:08:38.510Z,1.8
2023-01-31T09:10:34.559Z,1.7
2023-01-31T09:12:37.796Z,1.7
2023-01-31T09:16:32.347Z,1.9
2023-01-31T09:18:34.637Z,1.9
2023-01-31T09:22:34.522Z,2.2
2023-01-31T09:24:32.216Z,2.4
2023-01-31T09:26:38.549Z,2.4
2023-01-31T09:28:37.884Z,2.5
2023-01-31T09:30:32.200Z,2.7
2023-01-31T09:34:32.120Z,3
2023-01-31T09:36:32.072Z,3.2
2023-01-31T09:40:37.705Z,3
2023-01-31T09:42:33.052Z,3.1
2023-01-31T09:46:33.428Z,2.8
2023-01-31T09:48:31.990Z,2.9
2023-01-31T09:50:38.444Z,2.8
2023-01-31T09:52:32.006Z,2.7
2023-01-31T09:54:34.534Z,3.3
2023-01-31T09:58:32.074Z,3.2
2023-01-31T10:00:34.070Z,3.1
2023-01-31T10:06:33.280Z,3.6
2023-01-31T10:08:37.923Z,3.4
2023-01-31T10:10:38.577Z,3.9
2023-01-31T10:12:33.383Z,4
2023-01-31T10:16:31.986Z,4.2
2023-01-31T10:18:31.971Z,4.4
2023-01-31T10:20:37.252Z,4.4
2023-01-31T10:22:32.298Z,4.4
2023-01-31T10:24:36.784Z,4.5
2023-01-31T10:28:34.580Z,4.5
2023-01-31T10:30:32.136Z,4.6
2023-01-31T10:34:31.920Z,4.5
2023-01-31T10:36:32.339Z,4.5
2023-01-31T10:40:31.955Z,4.3
2023-01-31T10:46:32.451Z,3.6
2023-01-31T10:48:38.116Z,3.5
2023-01-31T10:50:38.481Z,3.6
2023-01-31T10:52:34.621Z,3.4
2023-01-31T10:54:31.918Z,3.4
2023-01-31T10:56:37.971Z,3.3
2023-01-31T10:58:33.982Z,3.1
2023-01-31T11:00:31.930Z,3.2
2023-01-31T11:04:31.936Z,3.2
2023-01-31T11:06:31.928Z,3.1
2023-01-31T11:10:31.950Z,3.2
2023-01-31T11:12:33.640Z,3.2
2023-01-31T11:16:33.622Z,3.2
2023-01-31T11:18:37.711Z,3.1
2023-01-31T11:22:31.898Z,3.2
2023-01-31T11:24:37.816Z,3.3
2023-01-31T11:28:34.033Z,3.3
2023-01-31T11:30:32.017Z,3.3
2023-01-31T11:34:31.951Z,3.4
2023-01-31T11:36:31.922Z,3.5
2023-01-31T11:40:31.928Z,3.6
2023-01-31T11:42:36.017Z,3.7
2023-01-31T11:46:32.118Z,3.8
2023-01-31T11:48:32.153Z,3.8
2023-01-31T11:52:31.969Z,4.1
2023-01-31T11:54:32.103Z,4.4
2023-01-31T11:56:38.017Z,4.3
2023-01-31T11:58:31.837Z,4.4
2023-01-31T12:00:31.916Z,4.1
2023-01-31T12:04:33.719Z,3.8
2023-01-31T12:06:31.996Z,4.6
2023-01-31T12:10:31.802Z,4.6
2023-01-31T12:12:35.595Z,4.6
2023-01-31T12:16:32.004Z,4.7
2023-01-31T12:18:31.865Z,4.8
2023-01-31T12:22:31.801Z,4.9
2023-01-31T12:24:31.815Z,4.8
2023-01-31T12:28:31.900Z,5
2023-01-31T12:30:36.078Z,5
2023-01-31T12:34:31.961Z,5
2023-01-31T12:36:38.049Z,4.8
2023-01-31T12:38:38.522Z,4.9
2023-01-31T12:40:35.458Z,4.9
2023-01-31T12:42:37.688Z,4.9
2023-01-31T12:46:32.040Z,4.9
2023-01-31T12:48:32.040Z,4.9
2023-01-31T12:50:37.212Z,4.6
2023-01-31T12:52:38.116Z,4.5
2023-01-31T12:54:32.002Z,4.4
2023-01-31T12:56:38.460Z,4.4
2023-01-31T12:58:34.039Z,4.3
2023-01-31T13:00:32.007Z,4.3
2023-01-31T13:02:38.334Z,4.3
2023-01-31T13:04:31.990Z,4.1
2023-01-31T13:06:32.012Z,4.1
2023-01-31T13:10:32.022Z,3.9
2023-01-31T13:12:35.382Z,3.8
2023-01-31T13:14:37.734Z,3.7
2023-01-31T13:16:31.935Z,3.6
2023-01-31T13:18:31.939Z,3.7
2023-01-31T13:22:31.944Z,3.5
2023-01-31T13:24:35.129Z,3.5
2023-01-31T13:28:31.994Z,3.5
2023-01-31T13:30:37.001Z,3.5
2023-01-31T13:32:38.682Z,3.5
2023-01-31T13:34:31.954Z,3.4
2023-01-31T13:36:35.386Z,3.4
2023-01-31T13:38:37.933Z,3.4
2023-01-31T13:40:34.010Z,3.4
2023-01-31T13:42:32.052Z,3.4
2023-01-31T13:44:38.441Z,3.4
2023-01-31T13:46:31.834Z,3.3
2023-01-31T13:48:36.707Z,3.4
2023-01-31T13:52:31.803Z,3.3
2023-01-31T13:54:34.056Z,3.3
2023-01-31T13:56:38.035Z,3.3
2023-01-31T13:58:34.194Z,3.3
2023-01-31T14:00:31.970Z,3.2
2023-01-31T14:04:31.828Z,3.2
2023-01-31T14:06:35.383Z,3.3
2023-01-31T14:10:34.982Z,3.3
2023-01-31T14:12:31.822Z,3.3
2023-01-31T14:16:32.226Z,3.3
2023-01-31T14:18:31.968Z,3.2
2023-01-31T14:22:34.010Z,3.1
2023-01-31T14:24:31.834Z,3.1
2023-01-31T14:28:31.813Z,3
2023-01-31T14:30:31.834Z,3
2023-01-31T14:34:31.814Z,3
2023-01-31T14:36:35.357Z,2.9
2023-01-31T14:38:38.077Z,2.9
2023-01-31T14:40:31.812Z,2.9
2023-01-31T14:42:31.809Z,2.9
2023-01-31T14:44:38.581Z,2.9
2023-01-31T14:46:32.203Z,2.8
2023-01-31T14:48:31.995Z,2.8
2023-01-31T14:50:38.330Z,2.8
2023-01-31T14:52:34.520Z,2.8
2023-01-31T14:54:32.271Z,2.8
2023-01-31T14:56:38.604Z,2.8
2023-01-31T14:58:37.959Z,2.8
2023-01-31T15:00:35.726Z,2.8
2023-01-31T15:04:34.641Z,2.8
2023-01-31T15:06:36.707Z,2.8
2023-01-31T15:10:31.823Z,2.8
2023-01-31T15:12:31.832Z,2.8
2023-01-31T15:16:31.891Z,2.8
2023-01-31T15:18:31.982Z,2.8
2023-01-31T15:20:37.826Z,2.8
2023-01-31T15:22:31.837Z,2.8
2023-01-31T15:24:32.045Z,2.8
2023-01-31T15:28:32.292Z,2.8
2023-01-31T15:30:35.505Z,2.7
2023-01-31T15:34:31.832Z,2.7
2023-01-31T15:36:31.835Z,2.7
2023-01-31T15:40:35.092Z,2.6
2023-01-31T15:42:31.990Z,2.6
2023-01-31T15:44:38.130Z,2.7
2023-01-31T15:48:31.828Z,2.6
2023-01-31T15:52:31.862Z,2.6
2023-01-31T15:54:35.308Z,2.6
2023-01-31T15:56:38.418Z,2.5
2023-01-31T15:58:39.002Z,2.6
2023-01-31T16:00:31.854Z,2.5
2023-01-31T16:02:37.522Z,2.6
2023-01-31T16:04:31.836Z,2.6
2023-01-31T16:06:31.993Z,2.5
2023-01-31T16:10:35.916Z,2.5
2023-01-31T16:12:38.502Z,2.5
2023-01-31T16:16:31.944Z,2.5
2023-01-31T16:18:37.037Z,2.5
2023-01-31T16:22:32.170Z,2.5
2023-01-31T16:24:31.852Z,2.6
2023-01-31T16:28:32.017Z,2.5
2023-01-31T16:30:34.098Z,2.5
2023-01-31T16:32:38.606Z,2.5
2023-01-31T16:34:36.503Z,2.5
2023-01-31T16:36:33.912Z,2.5
2023-01-31T16:40:31.865Z,2.6
2023-01-31T16:42:32.055Z,2.5
2023-01-31T16:46:32.193Z,2.6
2023-01-31T16:48:37.812Z,2.6
2023-01-31T16:52:31.873Z,2.6
2023-01-31T16:54:31.879Z,2.6
2023-01-31T16:56:38.449Z,2.6
2023-01-31T17:00:31.862Z,2.6
2023-01-31T17:02:35.640Z,2.6
2023-01-31T17:04:36.725Z,2.6
2023-01-31T17:06:31.886Z,2.7
2023-01-31T17:10:32.064Z,2.7
2023-01-31T17:12:31.869Z,2.6
2023-01-31T17:14:38.771Z,2.7
2023-01-31T17:16:32.046Z,2.6
2023-01-31T17:18:34.084Z,2.7
2023-01-31T17:22:31.879Z,2.7
2023-01-31T17:24:37.288Z,2.8
2023-01-31T17:28:35.514Z,2.8
2023-01-31T17:30:31.905Z,2.8
2023-01-31T17:32:38.522Z,2.7
2023-01-31T17:34:32.241Z,2.8
2023-01-31T17:36:32.088Z,2.8
2023-01-31T17:38:38.668Z,2.7
2023-01-31T17:40:34.131Z,2.8
2023-01-31T17:42:31.832Z,2.7
2023-01-31T17:44:34.178Z,2.8
2023-01-31T17:46:32.165Z,2.8
2023-01-31T17:48:31.844Z,2.7
2023-01-31T17:50:38.318Z,2.7
2023-01-31T17:52:34.325Z,2.7
2023-01-31T17:54:34.038Z,2.8
2023-01-31T17:56:38.209Z,2.8
2023-01-31T17:58:31.845Z,2.8
2023-01-31T18:00:31.912Z,2.7
2023-01-31T18:04:31.886Z,2.8
2023-01-31T18:06:31.894Z,2.7
2023-01-31T18:08:38.203Z,2.7
2023-01-31T18:10:31.843Z,2.7
2023-01-31T18:12:31.885Z,2.8
2023-01-31T18:16:35.708Z,2.7
2023-01-31T18:18:31.884Z,2.7
2023-01-31T18:22:31.850Z,2.7
2023-01-31T18:24:31.890Z,2.7
2023-01-31T18:26:38.557Z,2.6
2023-01-31T18:28:34.475Z,2.7
2023-01-31T18:30:31.884Z,2.7
2023-01-31T18:32:36.979Z,2.7
2023-01-31T18:34:31.860Z,2.7
2023-01-31T18:36:38.126Z,2.7
2023-01-31T18:38:38.496Z,2.7
2023-01-31T18:42:31.895Z,2.6
2023-01-31T18:46:31.906Z,2.6
2023-01-31T18:48:33.002Z,2.7
2023-01-31T18:52:31.857Z,2.7
2023-01-31T18:54:32.148Z,2.7
2023-01-31T18:56:38.547Z,2.6
2023-01-31T18:58:37.994Z,2.5
2023-01-31T19:00:31.919Z,2.6
2023-01-31T19:02:38.504Z,2.6
2023-01-31T19:04:34.693Z,2.6
2023-01-31T19:06:31.895Z,2.6
2023-01-31T19:08:38.548Z,2.6
2023-01-31T19:10:34.743Z,2.6
2023-01-31T19:12:31.911Z,2.6
2023-01-31T19:16:31.936Z,2.5
2023-01-31T19:18:31.869Z,2.5
2023-01-31T19:20:37.576Z,2.5
2023-01-31T19:22:31.906Z,2.6
2023-01-31T19:24:31.902Z,2.6
2023-01-31T19:28:32.011Z,2.6
2023-01-31T19:30:32.184Z,2.6
2023-01-31T19:34:31.903Z,2.6
2023-01-31T19:36:35.232Z,2.5
2023-01-31T19:38:38.446Z,2.5
2023-01-31T19:40:35.310Z,2.5
2023-01-31T19:42:34.113Z,2.5
2023-01-31T19:44:38.446Z,2.5
2023-01-31T19:46:31.875Z,2.5
2023-01-31T19:48:34.034Z,2.6
2023-01-31T19:52:38.430Z,2.6
2023-01-31T19:54:31.863Z,2.6
2023-01-31T19:56:38.525Z,2.6
2023-01-31T19:58:31.927Z,2.5
2023-01-31T20:00:38.200Z,2.6
2023-01-31T20:02:38.165Z,2.6
2023-01-31T20:04:31.882Z,2.6
2023-01-31T20:06:31.887Z,2.6
2023-01-31T20:10:37.156Z,2.5
2023-01-31T20:12:31.949Z,2.6
2023-01-31T20:14:38.495Z,2.6
2023-01-31T20:16:31.977Z,2.5
2023-01-31T20:18:31.930Z,2.5
2023-01-31T20:22:31.856Z,2.5
2023-01-31T20:24:34.051Z,2.5
2023-01-31T20:28:37.309Z,2.6
2023-01-31T20:30:34.194Z,2.6
2023-01-31T20:32:33.801Z,2.5
2023-01-31T20:34:31.928Z,2.5
2023-01-31T20:36:32.191Z,2.5
2023-01-31T20:38:37.106Z,2.5
2023-01-31T20:40:35.998Z,2.5
2023-01-31T20:42:31.861Z,2.5
2023-01-31T20:44:38.507Z,2.5
2023-01-31T20:46:34.132Z,2.6
2023-01-31T20:48:31.885Z,2.6
2023-01-31T20:52:35.612Z,2.6
2023-01-31T20:54:31.873Z,2.6
2023-01-31T20:58:38.243Z,2.6
2023-01-31T21:00:31.867Z,2.5
2023-01-31T21:04:37.359Z,2.5
2023-01-31T21:06:31.897Z,2.6
2023-01-31T21:10:31.882Z,2.6
2023-01-31T21:12:31.860Z,2.6
2023-01-31T21:14:38.767Z,2.6
2023-01-31T21:16:35.546Z,2.5
2023-01-31T21:18:34.107Z,2.6
2023-01-31T21:20:38.495Z,2.5
2023-01-31T21:22:31.897Z,2.6
2023-01-31T21:24:37.790Z,2.6
2023-01-31T21:26:38.559Z,2.6
2023-01-31T21:28:37.669Z,2.6
2023-01-31T21:30:31.889Z,2.6
2023-01-31T21:34:31.927Z,2.6
2023-01-31T21:36:36.407Z,2.6
2023-01-31T21:38:37.157Z,2.6
2023-01-31T21:40:31.913Z,2.6
2023-01-31T21:42:31.871Z,2.6
2023-01-31T21:46:41.933Z,2.6
2023-01-31T21:48:32.826Z,2.6
2023-01-31T21:54:38.375Z,2.6
2023-01-31T21:56:38.269Z,2.6
2023-01-31T21:58:38.760Z,2.5
2023-01-31T22:00:38.204Z,2.6
2023-01-31T22:02:34.816Z,2.5
2023-01-31T22:04:36.492Z,2.6
2023-01-31T22:06:31.957Z,2.5
2023-01-31T22:10:35.620Z,2.6
2023-01-31T22:12:31.917Z,2.5
2023-01-31T22:14:38.641Z,2.6
2023-01-31T22:16:31.911Z,2.6
2023-01-31T22:18:35.927Z,2.5
2023-01-31T22:22:33.344Z,2.5
2023-01-31T22:24:31.912Z,2.5
2023-01-31T22:26:38.538Z,2.6
2023-01-31T22:28:31.923Z,2.5
2023-01-31T22:30:33.938Z,2.6
2023-01-31T22:32:37.923Z,2.6
2023-01-31T22:34:31.979Z,2.5
2023-01-31T22:36:31.890Z,2.5
2023-01-31T22:38:38.724Z,2.5
2023-01-31T22:40:31.985Z,2.5
2023-01-31T22:42:31.891Z,2.5
2023-01-31T22:44:38.541Z,2.5
2023-01-31T22:46:31.980Z,2.5
2023-01-31T22:48:31.920Z,2.5
2023-01-31T22:50:38.678Z,2.5
2023-01-31T22:52:31.931Z,2.6
2023-01-31T22:54:31.930Z,2.6
2023-01-31T22:56:34.987Z,2.5
2023-01-31T22:58:31.955Z,2.3
2023-01-31T23:00:31.958Z,2.3
2023-01-31T23:02:32.563Z,2.3
2023-01-31T23:04:32.013Z,2.3
2023-01-31T23:06:31.902Z,2.3
2023-01-31T23:08:38.870Z,2.3
2023-01-31T23:10:32.232Z,2.2
2023-01-31T23:12:31.970Z,2.3
2023-01-31T23:14:38.470Z,2.3
2023-01-31T23:16:38.922Z,2.2
2023-01-31T23:18:31.922Z,2.3
2023-01-31T23:20:38.623Z,2.3
2023-01-31T23:22:36.449Z,2.3
2023-01-31T23:24:31.970Z,2.3
2023-01-31T23:28:31.960Z,2.3
2023-01-31T23:30:34.248Z,2.3
2023-01-31T23:34:33.914Z,2.4
2023-01-31T23:36:31.915Z,2.4
2023-01-31T23:40:31.999Z,2.4
2023-01-31T23:42:31.966Z,2.4
2023-01-31T23:44:38.428Z,2.4
2023-01-31T23:46:35.747Z,2.5
2023-01-31T23:48:31.926Z,2.5
2023-01-31T23:52:31.902Z,2.5
2023-01-31T23:54:34.818Z,2.4
2023-01-31T23:58:35.550Z,2.4
